Alburnett, Iowa
Current Conditions -  °F | °C
As of 2:52 PM on Saturday 20 Dec 2014 (Local Time) from KCID Reporting Station
Haze Haze  
Wind Chill: 26°   Ceiling: 500
Heat Index: 32°   Visibility: 1mi
Dew Point: 31°   Wind: 6mph
Humidity: 96%   Direction: 140°SE
Pressure: 30.15"   Gusts: NA
Location:  42.15°N, 91.62°W
Report Text: KCID 202052Z 14005KT 1SM BR OVC005 00/M01 A3015 RMK AO2 CIG 003V008 SLP220 60000 I1001 I3001 T00001006 56015 $
Loading
Personal Weather Stations






























Interactive Weather Map New forecast layout! Learn more

10-Day Weather Forecast

Advertisements
Track Severe Weather on mobile